メインページ
METAR-TAF:

METAR-TAF

空港 :

シーラーズ国際空港

シーラーズ, イラン

緯度: 29-32N, 経度: 052-35E, 海抜: 1486m

現時点の気象観測

当レポートは26分前の05:30(UTC)に作成
無風
気温 17°C
湿度 45%
気圧 1024 hPa
視程10km以上
1,500メートル以下は雲なし、積乱雲なし

METAR: OISS 040530Z 00000KT CAVOK 17/05 Q1023 A3024

時間: 10:26 (05:56 UTC)

予報

当レポートは26分前の05:30(UTC)に作成
予報は04日の 06時(UTC)から 05日の 12時(UTC)まで有効
西/北西の風 8kt
視程: 8000m
高度4000ftの雲はほとんどない
高度10000ftの雲は散在している
04日の 09時(UTC)から 04日の 15時(UTC)まで一時的に
西の風 18kt

TAF: OISS 040530Z 0406/0512 30008KT 8000 FEW040 SCT100 TEMPO 0409/0415 27018KT

4,000以上の空港の気象観測と天気予報(METAR報とTAF報)

利用可能な観測所は地図上に黄色い丸と赤い丸で示す。

丸の上にカーソルを重ねると観測所名を参照できる。

次にクリックすると気象観測と天気予報を参照できる。

マップの切り替え:黒色「×」印の緑ボタンをクリックして拡大、「-」印の緑ボタンをクリックして縮小、緑色の三角印をクリックして隣りの地図に切り替え


METAR-TAF: